createdAt,value
2017-10-18T00:01:15.096Z,81.30
2017-10-18T00:03:48.450Z,81.30
2017-10-18T00:06:21.028Z,81.30
2017-10-18T00:08:53.617Z,81.30
2017-10-18T00:11:26.255Z,81.30
2017-10-18T00:13:58.928Z,81.20
2017-10-18T00:16:31.403Z,81.20
2017-10-18T00:19:03.957Z,81.20
2017-10-18T00:21:37.164Z,81.20
2017-10-18T00:24:09.841Z,81.20
2017-10-18T00:26:42.348Z,81.30
2017-10-18T00:29:14.927Z,81.20
2017-10-18T00:31:47.489Z,81.20
2017-10-18T00:34:19.868Z,81.30
2017-10-18T00:36:52.435Z,81.40
2017-10-18T00:39:24.831Z,81.40
2017-10-18T00:41:57.409Z,81.20
2017-10-18T00:44:30.035Z,81.20
2017-10-18T00:47:02.762Z,81.20
2017-10-18T00:49:35.229Z,81.20
2017-10-18T00:52:07.769Z,81.30
2017-10-18T00:54:40.414Z,81.30
2017-10-18T00:57:12.925Z,81.30
2017-10-18T00:59:45.523Z,81.40
2017-10-18T01:02:18.076Z,81.40
2017-10-18T01:04:50.556Z,81.40
2017-10-18T01:07:23.290Z,82.30
2017-10-18T01:09:56.652Z,82.40
2017-10-18T01:12:29.138Z,82.50
2017-10-18T01:15:01.489Z,82.50
2017-10-18T01:17:33.875Z,82.60
2017-10-18T01:20:06.319Z,82.60
2017-10-18T01:22:39.016Z,82.60
2017-10-18T01:25:11.835Z,82.60
2017-10-18T01:27:44.478Z,82.60
2017-10-18T01:30:17.733Z,82.60
2017-10-18T01:32:50.484Z,82.70
2017-10-18T01:35:22.935Z,82.70
2017-10-18T01:37:55.301Z,82.70
2017-10-18T01:40:27.792Z,82.70
2017-10-18T01:43:00.361Z,82.60
2017-10-18T01:45:32.801Z,82.60
2017-10-18T01:48:06.138Z,82.70
2017-10-18T01:50:38.631Z,82.70
2017-10-18T01:53:11.162Z,82.70
2017-10-18T01:55:43.623Z,82.70
2017-10-18T01:58:16.444Z,82.70
2017-10-18T02:00:49.739Z,82.90
2017-10-18T02:03:22.508Z,82.90
2017-10-18T02:05:54.984Z,82.90
2017-10-18T02:08:27.346Z,82.80
2017-10-18T02:11:00.527Z,82.90
2017-10-18T02:13:34.216Z,82.70
2017-10-18T02:16:06.996Z,82.70
2017-10-18T02:18:39.590Z,82.70
2017-10-18T02:21:12.948Z,82.70
2017-10-18T02:23:45.488Z,82.70
2017-10-18T02:26:18.047Z,82.80
2017-10-18T02:28:50.646Z,82.70
2017-10-18T02:31:23.222Z,82.60
2017-10-18T02:33:55.721Z,82.70
2017-10-18T02:36:28.192Z,82.60
2017-10-18T02:39:00.867Z,82.60
2017-10-18T02:41:34.148Z,82.70
2017-10-18T02:44:07.750Z,82.60
2017-10-18T02:46:40.324Z,82.60
2017-10-18T02:49:12.868Z,82.60
2017-10-18T02:51:45.453Z,82.60
2017-10-18T02:54:18.164Z,82.60
2017-10-18T02:56:50.807Z,82.50
2017-10-18T02:59:23.633Z,82.60
2017-10-18T03:01:57.043Z,82.60
2017-10-18T03:04:30.019Z,82.60
2017-10-18T03:07:02.618Z,82.60
2017-10-18T03:09:36.182Z,82.50
2017-10-18T03:12:08.923Z,82.50
2017-10-18T03:14:41.642Z,82.50
2017-10-18T03:17:14.984Z,82.50
2017-10-18T03:19:48.366Z,82.40
2017-10-18T03:22:21.986Z,82.50
2017-10-18T03:24:55.060Z,82.50
2017-10-18T03:27:28.478Z,82.50
2017-10-18T03:30:00.931Z,82.60
2017-10-18T03:32:33.416Z,82.60
2017-10-18T03:35:05.884Z,82.40
2017-10-18T03:37:39.300Z,82.50
2017-10-18T03:40:12.800Z,82.40
2017-10-18T03:42:45.271Z,82.50
2017-10-18T03:45:17.719Z,82.60
2017-10-18T03:47:50.977Z,82.50
2017-10-18T03:50:23.713Z,82.60
2017-10-18T03:52:56.406Z,82.50
2017-10-18T03:55:29.008Z,82.60
2017-10-18T03:58:02.752Z,82.60
2017-10-18T04:00:35.575Z,82.60
2017-10-18T04:03:08.143Z,82.50
2017-10-18T04:05:40.841Z,82.70
2017-10-18T04:08:13.268Z,82.60
2017-10-18T04:10:45.652Z,82.50
2017-10-18T04:13:18.189Z,82.60
2017-10-18T04:15:50.690Z,82.60
2017-10-18T04:18:23.112Z,82.60
2017-10-18T04:20:55.846Z,82.60
2017-10-18T04:23:28.202Z,82.60
2017-10-18T04:26:00.681Z,82.60
2017-10-18T04:28:33.289Z,82.60
2017-10-18T04:31:05.847Z,82.60
2017-10-18T04:33:38.422Z,82.60
2017-10-18T04:36:10.972Z,82.60
2017-10-18T04:38:43.544Z,82.60
2017-10-18T04:41:16.201Z,82.50
2017-10-18T04:43:48.775Z,82.50
2017-10-18T04:46:22.166Z,82.60
2017-10-18T04:48:54.908Z,82.60
2017-10-18T04:51:28.055Z,82.60
2017-10-18T04:54:00.910Z,82.50
2017-10-18T04:56:33.559Z,82.60
2017-10-18T04:59:06.248Z,82.60
2017-10-18T05:01:38.681Z,82.60
2017-10-18T05:04:11.203Z,82.60
2017-10-18T05:06:43.890Z,82.60
2017-10-18T05:09:16.280Z,82.70
2017-10-18T05:11:49.560Z,82.90
2017-10-18T05:14:22.305Z,82.90
2017-10-18T05:16:55.070Z,82.90
2017-10-18T05:19:28.363Z,83.00
2017-10-18T05:22:01.124Z,83.00
2017-10-18T05:24:33.719Z,83.00
2017-10-18T05:27:06.272Z,83.00
2017-10-18T05:29:38.850Z,83.00
2017-10-18T05:32:11.508Z,83.10
2017-10-18T05:34:43.912Z,83.10
2017-10-18T05:37:18.049Z,83.80
2017-10-18T05:39:51.037Z,83.10
2017-10-18T05:42:23.482Z,83.10
2017-10-18T05:44:56.770Z,83.20
2017-10-18T05:47:29.206Z,83.20
2017-10-18T05:50:01.555Z,83.30
2017-10-18T05:52:34.901Z,84.20
2017-10-18T05:55:07.444Z,83.40
2017-10-18T05:57:40.029Z,83.50
2017-10-18T06:00:12.496Z,83.60
2017-10-18T06:02:45.805Z,84.00
2017-10-18T06:05:18.654Z,83.80
2017-10-18T06:07:51.718Z,83.70
2017-10-18T06:10:25.357Z,83.90
2017-10-18T06:12:58.865Z,84.00
2017-10-18T06:15:31.860Z,84.00
2017-10-18T06:18:05.421Z,83.90
2017-10-18T06:20:39.595Z,84.10
2017-10-18T06:23:12.288Z,84.10
2017-10-18T06:25:44.899Z,83.90
2017-10-18T06:28:17.512Z,84.00
2017-10-18T06:30:49.965Z,84.00
2017-10-18T06:33:22.603Z,84.10
2017-10-18T06:35:55.135Z,84.20
2017-10-18T06:38:27.728Z,84.20
2017-10-18T06:41:00.272Z,84.00
2017-10-18T06:43:33.777Z,82.90
2017-10-18T06:46:06.620Z,82.90
2017-10-18T06:48:40.060Z,82.80
2017-10-18T06:51:13.332Z,82.80
2017-10-18T06:53:45.910Z,82.60
2017-10-18T06:56:19.197Z,82.70
2017-10-18T06:58:52.810Z,82.10
2017-10-18T07:01:25.726Z,82.10
2017-10-18T07:03:58.269Z,81.90
2017-10-18T07:06:31.024Z,81.80
2017-10-18T07:09:03.720Z,81.90
2017-10-18T07:11:37.028Z,82.10
2017-10-18T07:14:10.344Z,80.80
2017-10-18T07:16:43.153Z,80.70
2017-10-18T07:19:15.745Z,80.00
2017-10-18T07:21:48.158Z,79.50
2017-10-18T07:24:20.874Z,79.20
2017-10-18T07:26:53.451Z,79.20
2017-10-18T07:29:25.959Z,78.80
2017-10-18T07:31:58.313Z,78.50
2017-10-18T07:34:30.957Z,78.10
2017-10-18T07:37:03.597Z,78.20
2017-10-18T07:39:36.274Z,78.30
2017-10-18T07:42:08.791Z,77.90
2017-10-18T07:44:41.370Z,77.50
2017-10-18T07:47:13.775Z,77.10
2017-10-18T07:49:46.250Z,76.70
2017-10-18T07:52:18.747Z,76.10
2017-10-18T07:54:51.330Z,75.60
2017-10-18T07:57:23.918Z,75.00
2017-10-18T07:59:56.329Z,74.20
2017-10-18T08:02:28.898Z,73.70
2017-10-18T08:05:01.572Z,72.60
2017-10-18T08:07:34.040Z,72.00
2017-10-18T08:10:06.684Z,71.60
2017-10-18T08:12:39.976Z,70.50
2017-10-18T08:15:12.803Z,70.50
2017-10-18T08:17:45.303Z,70.10
2017-10-18T08:20:17.832Z,69.40
2017-10-18T08:22:51.167Z,68.20
2017-10-18T08:25:23.925Z,68.20
2017-10-18T08:27:56.434Z,67.40
2017-10-18T08:30:29.467Z,67.10
2017-10-18T08:33:01.919Z,66.60
2017-10-18T08:35:34.463Z,66.60
2017-10-18T08:38:06.877Z,64.90
2017-10-18T08:40:39.476Z,65.20
2017-10-18T08:43:13.104Z,63.20
2017-10-18T08:45:46.115Z,63.30
2017-10-18T08:48:18.572Z,62.50
2017-10-18T08:50:51.369Z,61.70
2017-10-18T08:53:24.657Z,61.10
2017-10-18T08:55:57.984Z,59.60
2017-10-18T08:58:31.301Z,59.70
2017-10-18T09:01:04.425Z,59.60
2017-10-18T09:03:36.931Z,58.80
2017-10-18T09:06:09.458Z,58.90
2017-10-18T09:08:42.108Z,58.00
2017-10-18T09:11:14.562Z,58.20
2017-10-18T09:13:47.233Z,56.40
2017-10-18T09:16:19.728Z,55.40
2017-10-18T09:18:59.320Z,54.70
2017-10-18T09:21:31.938Z,54.60
2017-10-18T09:24:04.275Z,53.50
2017-10-18T09:26:36.781Z,52.30
2017-10-18T09:29:09.178Z,51.30
2017-10-18T09:31:41.837Z,50.80
2017-10-18T09:34:15.366Z,49.30
2017-10-18T09:36:48.281Z,49.20
2017-10-18T09:39:20.803Z,50.40
2017-10-18T09:41:53.525Z,49.80
2017-10-18T09:44:26.215Z,49.00
2017-10-18T09:46:58.954Z,48.30
2017-10-18T09:49:31.716Z,48.80
2017-10-18T09:52:04.222Z,48.80
2017-10-18T09:54:36.684Z,48.90
2017-10-18T09:57:09.941Z,47.00
2017-10-18T09:59:43.648Z,46.30
2017-10-18T10:02:16.523Z,46.30
2017-10-18T10:04:48.924Z,46.90
2017-10-18T10:07:21.440Z,47.50
2017-10-18T10:09:54.153Z,46.70
2017-10-18T10:12:26.768Z,47.70
2017-10-18T10:15:00.157Z,48.50
2017-10-18T10:17:33.414Z,48.10
2017-10-18T10:20:06.327Z,48.10
2017-10-18T10:22:38.992Z,47.90
2017-10-18T10:25:11.688Z,48.70
2017-10-18T10:27:44.908Z,49.10
2017-10-18T10:30:17.620Z,49.10
2017-10-18T10:32:50.222Z,48.30
2017-10-18T10:35:23.497Z,49.40
2017-10-18T10:37:56.062Z,49.40
2017-10-18T10:40:28.650Z,49.40
2017-10-18T10:43:01.332Z,49.90
2017-10-18T10:45:34.048Z,50.10
2017-10-18T10:48:06.599Z,50.30
2017-10-18T10:50:39.949Z,50.50
2017-10-18T10:53:13.660Z,50.60
2017-10-18T10:55:46.563Z,50.50
2017-10-18T10:58:19.158Z,50.90
2017-10-18T11:00:52.311Z,51.80
2017-10-18T11:03:25.210Z,51.80
2017-10-18T11:05:58.412Z,52.70
2017-10-18T11:08:31.306Z,52.80
2017-10-18T11:11:03.825Z,52.60
2017-10-18T11:13:36.308Z,52.80
2017-10-18T11:16:09.084Z,52.90
2017-10-18T11:18:41.680Z,53.40
2017-10-18T11:21:14.287Z,53.40
2017-10-18T11:23:47.468Z,53.80
2017-10-18T11:26:21.026Z,54.00
2017-10-18T11:28:53.806Z,53.90
2017-10-18T11:31:26.495Z,53.90
2017-10-18T11:33:59.675Z,54.00
2017-10-18T11:36:32.475Z,54.00
2017-10-18T11:39:05.097Z,54.00
2017-10-18T11:41:37.485Z,54.50
2017-10-18T11:44:10.879Z,54.60
2017-10-18T11:46:44.092Z,54.60
2017-10-18T11:49:16.923Z,54.60
2017-10-18T11:51:50.263Z,54.30
2017-10-18T11:54:22.694Z,54.10
2017-10-18T11:56:56.037Z,53.10
2017-10-18T11:59:28.878Z,53.10
2017-10-18T12:02:02.224Z,52.90
2017-10-18T12:04:34.958Z,52.60
2017-10-18T12:07:08.152Z,52.70
2017-10-18T12:09:41.023Z,52.70
2017-10-18T12:12:14.426Z,53.10
2017-10-18T12:14:46.944Z,52.50
2017-10-18T12:17:20.205Z,52.30
2017-10-18T12:19:53.106Z,52.30
2017-10-18T12:22:25.621Z,52.00
2017-10-18T12:24:58.300Z,52.10
2017-10-18T12:27:30.793Z,51.80
2017-10-18T12:30:03.387Z,52.10
2017-10-18T12:32:36.880Z,53.40
2017-10-18T12:35:09.763Z,52.80
2017-10-18T12:37:42.228Z,53.20
2017-10-18T12:40:15.532Z,53.70
2017-10-18T12:42:48.558Z,53.70
2017-10-18T12:45:20.968Z,53.20
2017-10-18T12:47:54.224Z,53.70
2017-10-18T12:50:27.101Z,53.70
2017-10-18T12:52:59.560Z,53.90
2017-10-18T12:55:33.658Z,53.70
2017-10-18T12:58:07.389Z,53.70
2017-10-18T13:00:39.963Z,53.80
2017-10-18T13:03:12.398Z,53.40
2017-10-18T13:05:45.695Z,52.60
2017-10-18T13:08:18.217Z,52.50
2017-10-18T13:10:51.900Z,53.40
2017-10-18T13:13:25.858Z,53.50
2017-10-18T13:15:58.581Z,53.40
2017-10-18T13:18:31.065Z,52.60
2017-10-18T13:21:03.549Z,53.10
2017-10-18T13:23:36.832Z,52.80
2017-10-18T13:26:09.573Z,52.80
2017-10-18T13:28:42.916Z,52.20
2017-10-18T13:31:15.374Z,51.70
2017-10-18T13:33:48.616Z,50.80
2017-10-18T13:36:21.311Z,50.70
2017-10-18T13:38:53.972Z,51.00
2017-10-18T13:41:26.608Z,51.60
2017-10-18T13:43:59.177Z,51.80
2017-10-18T13:46:32.536Z,52.10
2017-10-18T13:49:05.344Z,51.50
2017-10-18T13:51:37.900Z,51.90
2017-10-18T13:54:10.588Z,52.80
2017-10-18T13:56:43.236Z,52.90
2017-10-18T13:59:15.700Z,53.00
2017-10-18T14:01:48.218Z,53.90
2017-10-18T14:04:20.697Z,53.80
2017-10-18T14:06:53.230Z,53.90
2017-10-18T14:09:25.724Z,54.30
2017-10-18T14:11:58.945Z,55.60
2017-10-18T14:14:31.769Z,55.60
2017-10-18T14:17:04.334Z,55.80
2017-10-18T14:19:38.467Z,55.50
2017-10-18T14:22:11.192Z,55.50
2017-10-18T14:24:43.830Z,55.80
2017-10-18T14:27:16.469Z,55.90
2017-10-18T14:29:49.027Z,56.00
2017-10-18T14:32:22.491Z,55.90
2017-10-18T14:34:55.056Z,56.00
2017-10-18T14:37:27.569Z,55.90
2017-10-18T14:40:00.236Z,55.70
2017-10-18T14:42:32.714Z,56.00
2017-10-18T14:45:05.110Z,56.10
2017-10-18T14:47:37.656Z,56.20
2017-10-18T14:50:10.243Z,56.50
2017-10-18T14:52:42.890Z,56.50
2017-10-18T14:55:15.483Z,56.60
2017-10-18T14:57:48.154Z,56.70
2017-10-18T15:00:20.818Z,57.00
2017-10-18T15:02:53.199Z,57.70
2017-10-18T15:05:27.744Z,57.90
2017-10-18T15:08:00.261Z,58.00
2017-10-18T15:10:32.780Z,58.40
2017-10-18T15:13:05.171Z,58.60
2017-10-18T15:15:37.794Z,58.60
2017-10-18T15:18:17.360Z,59.50
2017-10-18T15:20:50.676Z,60.00
2017-10-18T15:23:23.280Z,60.00
2017-10-18T15:25:56.551Z,59.50
2017-10-18T15:28:29.285Z,59.50
2017-10-18T15:31:01.774Z,59.20
2017-10-18T15:33:35.096Z,60.10
2017-10-18T15:36:07.562Z,60.00
2017-10-18T15:38:40.020Z,59.90
2017-10-18T15:41:12.556Z,60.40
2017-10-18T15:43:45.104Z,60.60
2017-10-18T15:46:18.337Z,60.70
2017-10-18T15:48:51.100Z,60.60
2017-10-18T15:51:23.647Z,59.90
2017-10-18T15:53:56.983Z,60.40
2017-10-18T15:56:29.877Z,60.40
2017-10-18T15:59:02.670Z,59.90
2017-10-18T16:01:35.364Z,61.00
2017-10-18T16:04:08.009Z,62.30
2017-10-18T16:06:47.766Z,62.60
2017-10-18T16:09:20.332Z,62.90
2017-10-18T16:11:52.744Z,63.70
2017-10-18T16:14:25.493Z,64.30
2017-10-18T16:16:58.364Z,64.70
2017-10-18T16:19:30.789Z,65.40
2017-10-18T16:22:03.382Z,66.00
2017-10-18T16:24:36.752Z,67.10
2017-10-18T16:27:09.520Z,67.10
2017-10-18T16:29:42.883Z,68.10
2017-10-18T16:32:15.710Z,68.00
2017-10-18T16:34:49.210Z,68.40
2017-10-18T16:37:21.856Z,68.70
2017-10-18T16:39:54.293Z,69.10
2017-10-18T16:42:27.546Z,69.90
2017-10-18T16:45:00.268Z,69.90
2017-10-18T16:47:32.739Z,70.30
2017-10-18T16:50:05.296Z,71.50
2017-10-18T16:52:37.676Z,71.10
2017-10-18T16:55:10.321Z,71.30
2017-10-18T16:57:42.883Z,71.50
2017-10-18T17:00:15.320Z,71.80
2017-10-18T17:02:47.825Z,72.10
2017-10-18T17:05:20.487Z,72.40
2017-10-18T17:07:52.979Z,72.60
2017-10-18T17:10:25.466Z,72.70
2017-10-18T17:12:58.072Z,73.00
2017-10-18T17:15:30.894Z,73.30
2017-10-18T17:18:03.306Z,73.50
2017-10-18T17:20:35.887Z,73.70
2017-10-18T17:23:08.492Z,73.90
2017-10-18T17:25:48.132Z,74.10
2017-10-18T17:28:20.960Z,74.40
2017-10-18T17:30:53.535Z,74.50
2017-10-18T17:33:25.988Z,74.70
2017-10-18T17:35:58.595Z,74.90
2017-10-18T17:38:31.145Z,75.10
2017-10-18T17:41:04.294Z,75.40
2017-10-18T17:43:37.679Z,75.60
2017-10-18T17:46:10.604Z,75.50
2017-10-18T17:48:43.099Z,75.70
2017-10-18T17:51:17.419Z,76.00
2017-10-18T17:53:50.198Z,76.00
2017-10-18T17:56:22.776Z,76.20
2017-10-18T17:58:55.601Z,76.30
2017-10-18T18:01:28.805Z,76.50
2017-10-18T18:10:11.165Z,76.90
2017-10-18T18:12:44.041Z,76.90
2017-10-18T18:15:16.580Z,77.20
2017-10-18T18:17:51.805Z,77.30
2017-10-18T18:20:24.858Z,77.30
2017-10-18T18:22:58.150Z,77.60
2017-10-18T18:25:32.182Z,77.70
2017-10-18T18:28:05.898Z,77.70
2017-10-18T18:30:39.131Z,77.80
2017-10-18T18:33:12.493Z,77.80
2017-10-18T18:35:45.877Z,78.00
2017-10-18T18:38:18.489Z,78.00
2017-10-18T18:40:52.078Z,78.10
2017-10-18T18:43:25.427Z,78.10
2017-10-18T18:45:58.718Z,78.20
2017-10-18T18:48:32.152Z,78.20
2017-10-18T18:51:06.561Z,78.70
2017-10-18T18:53:40.227Z,78.70
2017-10-18T18:56:14.134Z,78.70
2017-10-18T18:58:47.328Z,78.70
2017-10-18T19:01:20.777Z,79.40
2017-10-18T19:03:53.253Z,78.60
2017-10-18T19:06:25.943Z,78.50
2017-10-18T19:09:00.566Z,78.60
2017-10-18T19:11:33.439Z,78.70
2017-10-18T19:14:06.089Z,78.90
2017-10-18T19:16:39.169Z,79.00
2017-10-18T19:19:11.719Z,79.10
2017-10-18T19:21:45.171Z,79.10
2017-10-18T19:24:18.074Z,79.10
2017-10-18T19:26:52.876Z,79.20
2017-10-18T19:29:26.569Z,79.10
2017-10-18T19:31:59.379Z,79.20
2017-10-18T19:34:32.893Z,79.40
2017-10-18T19:37:05.617Z,79.40
2017-10-18T19:39:38.455Z,79.40
2017-10-18T19:45:16.418Z,79.50
2017-10-18T19:47:51.776Z,79.70
2017-10-18T19:50:27.232Z,79.70
2017-10-18T19:53:01.926Z,79.70
2017-10-18T19:55:36.051Z,79.60
2017-10-18T19:58:10.662Z,79.70
2017-10-18T20:00:45.286Z,80.00
2017-10-18T20:03:20.225Z,80.00
2017-10-18T20:05:55.315Z,80.00
2017-10-18T20:08:30.587Z,80.00
2017-10-18T20:11:05.585Z,80.00
2017-10-18T20:13:40.231Z,80.10
2017-10-18T20:16:14.916Z,80.10
2017-10-18T20:18:50.161Z,80.30
2017-10-18T20:21:24.906Z,80.30
2017-10-18T20:24:00.178Z,80.30
2017-10-18T20:26:35.240Z,80.30
2017-10-18T20:29:09.825Z,80.30
2017-10-18T20:31:43.840Z,79.70
2017-10-18T20:34:19.338Z,80.40
2017-10-18T20:36:55.177Z,80.50
2017-10-18T20:39:29.977Z,80.50
2017-10-18T20:42:04.765Z,80.50
2017-10-18T20:44:39.403Z,80.40
2017-10-18T20:47:14.421Z,80.40
2017-10-18T20:49:49.045Z,80.40
2017-10-18T20:52:23.891Z,80.40
2017-10-18T20:54:58.770Z,80.60
2017-10-18T20:57:32.199Z,81.20
2017-10-18T21:00:06.265Z,81.10
2017-10-18T21:02:38.932Z,80.60
2017-10-18T21:05:12.303Z,80.50
2017-10-18T21:07:44.988Z,80.50
2017-10-18T21:10:18.158Z,81.10
2017-10-18T21:12:50.965Z,80.50
2017-10-18T21:15:23.541Z,80.60
2017-10-18T21:17:57.684Z,80.60
2017-10-18T21:20:30.566Z,80.60
2017-10-18T21:23:03.311Z,80.60
2017-10-18T21:25:36.689Z,80.50
2017-10-18T21:28:10.323Z,80.60
2017-10-18T21:30:43.020Z,80.50
2017-10-18T21:33:15.474Z,80.40
2017-10-18T21:35:48.060Z,80.40
2017-10-18T21:38:20.938Z,80.50
2017-10-18T21:40:53.400Z,80.50
2017-10-18T21:43:27.096Z,80.60
2017-10-18T21:46:00.215Z,80.60
2017-10-18T21:48:33.021Z,80.50
2017-10-18T21:51:05.650Z,80.60
2017-10-18T21:53:38.398Z,80.50
2017-10-18T21:56:11.134Z,80.60
2017-10-18T21:58:43.797Z,80.70
2017-10-18T22:01:16.468Z,80.80
2017-10-18T22:03:49.192Z,80.90
2017-10-18T22:06:21.865Z,80.80
2017-10-18T22:08:54.987Z,80.80
2017-10-18T22:11:27.461Z,80.70
2017-10-18T22:14:00.154Z,80.80
2017-10-18T22:16:32.626Z,80.70
2017-10-18T22:19:05.405Z,80.70
2017-10-18T22:21:37.866Z,80.80
2017-10-18T22:24:10.570Z,80.70
2017-10-18T22:26:43.834Z,80.70
2017-10-18T22:29:17.184Z,80.70
2017-10-18T22:31:49.902Z,80.70
2017-10-18T22:34:23.272Z,80.80
2017-10-18T22:36:55.984Z,80.80
2017-10-18T22:39:28.814Z,80.70
2017-10-18T22:42:02.765Z,80.60
2017-10-18T22:44:35.354Z,80.60
2017-10-18T22:47:07.793Z,80.50
2017-10-18T22:49:41.216Z,80.70
2017-10-18T22:52:14.288Z,80.70
2017-10-18T22:54:47.058Z,80.70
2017-10-18T22:57:19.723Z,80.70
2017-10-18T22:59:52.499Z,80.70
2017-10-18T23:02:25.917Z,80.90
2017-10-18T23:04:58.750Z,81.80
2017-10-18T23:07:31.329Z,81.80
2017-10-18T23:10:04.560Z,81.80
2017-10-18T23:12:38.131Z,81.80
2017-10-18T23:15:12.009Z,81.80
2017-10-18T23:17:45.659Z,81.90
2017-10-18T23:20:18.587Z,81.90
2017-10-18T23:22:51.158Z,82.30
2017-10-18T23:25:23.708Z,81.90
2017-10-18T23:27:56.212Z,81.90
2017-10-18T23:30:28.717Z,81.80
2017-10-18T23:33:01.293Z,81.80
2017-10-18T23:35:33.894Z,81.70
2017-10-18T23:38:06.485Z,81.80
2017-10-18T23:40:39.877Z,81.90
2017-10-18T23:43:13.497Z,81.90
2017-10-18T23:45:46.464Z,81.80
2017-10-18T23:48:18.874Z,81.70
2017-10-18T23:50:51.464Z,81.80
2017-10-18T23:53:24.200Z,81.80
2017-10-18T23:55:56.752Z,81.90
2017-10-18T23:58:29.337Z,81.70
